createdAt,value
2019-04-11T00:00:03.503Z,97.25
2019-04-11T00:02:33.066Z,97.05
2019-04-11T00:05:02.349Z,96.42
2019-04-11T00:07:32.066Z,97.97
2019-04-11T00:10:00.535Z,101.00
2019-04-11T00:12:28.912Z,102.40
2019-04-11T00:14:57.267Z,98.52
2019-04-11T00:17:25.875Z,97.75
2019-04-11T00:19:54.282Z,101.85
2019-04-11T00:22:23.565Z,93.40
2019-04-11T00:24:52.062Z,95.28
2019-04-11T00:27:21.203Z,97.20
2019-04-11T00:29:49.651Z,94.67
2019-04-11T00:32:19.083Z,97.67
2019-04-11T00:34:47.948Z,97.05
2019-04-11T00:37:16.954Z,98.97
2019-04-11T00:39:45.830Z,101.53
2019-04-11T00:42:14.584Z,97.27
2019-04-11T00:44:43.173Z,96.87
2019-04-11T00:47:13.011Z,100.00
2019-04-11T00:49:41.485Z,98.78
2019-04-11T00:52:10.032Z,99.55
2019-04-11T00:54:38.610Z,94.47
2019-04-11T00:57:08.482Z,96.42
2019-04-11T00:59:36.842Z,102.22
2019-04-11T01:02:05.543Z,100.20
2019-04-11T01:04:34.861Z,96.55
2019-04-11T01:07:03.449Z,100.92
2019-04-11T01:09:32.637Z,98.00
2019-04-11T01:12:01.081Z,95.95
2019-04-11T01:14:29.958Z,99.25
2019-04-11T01:16:59.034Z,98.15
2019-04-11T01:19:27.498Z,98.62
2019-04-11T01:21:57.861Z,101.15
2019-04-11T01:24:26.293Z,97.90
2019-04-11T01:26:54.799Z,95.10
2019-04-11T01:29:23.147Z,94.45
2019-04-11T01:31:53.832Z,102.30
2019-04-11T01:34:22.373Z,96.00
2019-04-11T01:36:51.321Z,99.17
2019-04-11T01:39:25.199Z,96.92
2019-04-11T01:41:55.188Z,89.67
2019-04-11T01:44:24.683Z,96.47
2019-04-11T01:46:54.164Z,91.78
2019-04-11T01:49:24.418Z,90.97
2019-04-11T01:51:53.850Z,89.80
2019-04-11T01:54:23.524Z,87.65
2019-04-11T01:56:52.357Z,89.00
2019-04-11T01:59:21.600Z,93.20
2019-04-11T02:02:09.546Z,85.05
2019-04-11T02:04:52.325Z,90.67
2019-04-11T02:07:20.831Z,85.07
2019-04-11T02:09:50.432Z,80.92
2019-04-11T02:12:19.792Z,71.60
2019-04-11T02:14:50.110Z,66.42
2019-04-11T02:17:18.923Z,65.20
2019-04-11T02:19:48.080Z,64.95
2019-04-11T02:22:22.236Z,61.50
2019-04-11T02:25:01.220Z,56.13
2019-04-11T02:27:30.787Z,50.78
2019-04-11T02:29:59.190Z,51.02
2019-04-11T02:32:29.328Z,53.10
2019-04-11T02:34:59.327Z,50.23
2019-04-11T02:37:29.398Z,46.33
2019-04-11T02:39:59.927Z,44.70
2019-04-11T02:42:28.369Z,49.03
2019-04-11T02:45:13.414Z,43.30
2019-04-11T02:47:31.887Z,41.50
2019-04-11T02:49:57.343Z,41.95
2019-04-11T02:52:27.657Z,44.75
2019-04-11T02:54:56.981Z,40.63
2019-04-11T02:57:25.823Z,41.85
2019-04-11T02:59:55.997Z,41.00
2019-04-11T03:02:26.037Z,41.73
2019-04-11T03:04:55.727Z,41.10
2019-04-11T03:07:24.876Z,38.70
2019-04-11T03:09:55.727Z,41.90
2019-04-11T03:12:24.198Z,35.40
2019-04-11T03:15:09.293Z,37.53
2019-04-11T03:17:28.686Z,36.83
2019-04-11T03:20:03.598Z,33.65
2019-04-11T03:22:24.740Z,34.20
2019-04-11T03:24:54.993Z,37.13
2019-04-11T03:27:26.070Z,35.65
2019-04-11T03:29:55.298Z,38.83
2019-04-11T03:35:59.608Z,35.17
2019-04-11T03:37:49.911Z,36.23
2019-04-11T03:40:13.167Z,33.30
2019-04-11T03:42:41.602Z,33.85
2019-04-11T03:45:15.084Z,34.65
2019-04-11T03:47:37.629Z,36.83
2019-04-11T03:50:02.998Z,34.43
2019-04-11T03:52:26.084Z,34.00
2019-04-11T03:54:56.258Z,35.20
2019-04-11T03:57:25.585Z,35.35
2019-04-11T03:59:54.532Z,35.05
2019-04-11T04:02:24.678Z,36.77
2019-04-11T04:04:54.110Z,31.25
2019-04-11T04:07:23.471Z,30.80
2019-04-11T04:09:53.793Z,31.15
2019-04-11T04:12:22.736Z,32.23
2019-04-11T04:14:53.933Z,36.25
2019-04-11T04:17:41.374Z,29.52
2019-04-11T04:20:19.351Z,29.07
2019-04-11T04:22:50.097Z,28.90
2019-04-11T04:25:18.944Z,32.95
2019-04-11T04:27:49.119Z,30.37
2019-04-11T04:30:19.852Z,28.50
2019-04-11T04:32:49.261Z,34.43
2019-04-11T04:35:21.013Z,28.85
2019-04-11T04:37:49.762Z,31.57
2019-04-11T04:40:36.030Z,31.62
2019-04-11T04:42:52.779Z,31.33
2019-04-11T04:45:19.284Z,32.20
2019-04-11T04:47:56.015Z,27.60
2019-04-11T04:50:19.928Z,33.50
2019-04-11T04:52:49.173Z,31.15
2019-04-11T04:55:19.286Z,32.42
2019-04-11T04:57:48.709Z,28.20
2019-04-11T05:00:18.849Z,32.13
2019-04-11T05:02:48.031Z,32.05
2019-04-11T05:05:17.826Z,26.93
2019-04-11T05:07:46.998Z,31.57
2019-04-11T05:10:16.253Z,28.07
2019-04-11T05:12:46.103Z,32.20
2019-04-11T05:15:16.477Z,28.75
2019-04-11T05:17:46.161Z,28.52
2019-04-11T05:20:16.185Z,26.90
2019-04-11T05:22:44.843Z,27.85
2019-04-11T05:25:13.222Z,33.42
2019-04-11T05:27:41.959Z,29.65
2019-04-11T05:30:11.266Z,32.73
2019-04-11T05:32:39.931Z,30.32
2019-04-11T05:35:08.971Z,30.05
2019-04-11T05:37:37.770Z,34.65
2019-04-11T05:40:07.251Z,32.25
2019-04-11T05:42:35.934Z,29.98
2019-04-11T05:45:05.385Z,28.12
2019-04-11T05:47:35.474Z,28.15
2019-04-11T05:50:16.640Z,28.80
2019-04-11T05:52:45.690Z,27.37
2019-04-11T05:55:15.498Z,28.25
2019-04-11T05:57:50.266Z,30.62
2019-04-11T06:00:35.230Z,34.25
2019-04-11T06:03:05.837Z,27.42
2019-04-11T06:05:37.923Z,28.15
2019-04-11T06:08:08.014Z,28.17
2019-04-11T06:10:54.761Z,28.55
2019-04-11T06:13:34.313Z,36.88
2019-04-11T06:16:04.485Z,28.05
2019-04-11T06:18:43.807Z,31.12
2019-04-11T06:21:15.804Z,29.63
2019-04-11T06:23:49.764Z,30.25
2019-04-11T06:26:28.625Z,30.93
2019-04-11T06:28:59.109Z,32.93
2019-04-11T06:31:45.803Z,27.90
2019-04-11T06:34:14.136Z,29.48
2019-04-11T06:36:48.227Z,31.30
2019-04-11T06:39:33.576Z,27.65
2019-04-11T06:42:15.435Z,33.00
2019-04-11T06:44:46.070Z,29.30
2019-04-11T06:47:18.874Z,30.72
2019-04-11T06:49:53.033Z,30.02
2019-04-11T06:52:22.596Z,29.82
2019-04-11T06:54:58.320Z,28.47
2019-04-11T06:57:34.169Z,28.67
2019-04-11T07:00:05.187Z,29.45
2019-04-11T07:02:35.443Z,29.25
2019-04-11T07:05:08.962Z,34.18
2019-04-11T07:07:39.499Z,29.15
2019-04-11T07:10:09.409Z,28.83
2019-04-11T07:12:45.311Z,32.48
2019-04-11T07:15:15.339Z,32.78
2019-04-11T07:17:58.841Z,30.95
2019-04-11T07:20:43.841Z,31.12
2019-04-11T07:23:30.793Z,30.80
2019-04-11T07:26:12.725Z,31.50
2019-04-11T07:28:43.898Z,30.75
2019-04-11T07:31:21.581Z,31.40
2019-04-11T07:33:56.082Z,31.12
2019-04-11T07:36:38.445Z,26.97
2019-04-11T07:39:09.851Z,30.77
2019-04-11T07:41:41.719Z,28.73
2019-04-11T07:44:17.849Z,29.63
2019-04-11T07:47:14.652Z,34.20
2019-04-11T07:49:45.018Z,30.15
2019-04-11T07:52:15.530Z,33.13
2019-04-11T07:54:44.121Z,31.60
2019-04-11T07:57:14.925Z,27.35
2019-04-11T07:59:53.915Z,32.80
2019-04-11T08:02:40.269Z,30.95
2019-04-11T08:05:13.254Z,29.18
2019-04-11T08:07:59.396Z,32.35
2019-04-11T08:10:29.432Z,31.85
2019-04-11T08:12:59.479Z,30.43
2019-04-11T08:15:41.940Z,30.90
2019-04-11T08:18:12.497Z,28.60
2019-04-11T08:20:48.245Z,28.87
2019-04-11T08:23:19.433Z,37.70
2019-04-11T08:25:49.727Z,27.65
2019-04-11T08:28:18.511Z,35.70
2019-04-11T08:30:48.942Z,32.08
2019-04-11T08:33:19.422Z,33.40
2019-04-11T08:35:54.007Z,29.65
2019-04-11T08:38:24.757Z,32.15
2019-04-11T08:40:55.482Z,31.85
2019-04-11T08:43:28.897Z,30.85
2019-04-11T08:46:02.600Z,33.78
2019-04-11T08:48:33.054Z,31.65
2019-04-11T08:51:14.894Z,28.92
2019-04-11T08:53:44.980Z,30.08
2019-04-11T08:56:21.102Z,34.67
2019-04-11T08:59:11.236Z,29.12
2019-04-11T09:01:40.295Z,32.93
2019-04-11T09:04:14.974Z,34.33
2019-04-11T09:06:43.502Z,31.60
2019-04-11T09:09:20.795Z,32.25
2019-04-11T09:11:51.022Z,34.33
2019-04-11T09:14:22.210Z,31.25
2019-04-11T09:16:56.225Z,34.20
2019-04-11T09:19:38.968Z,31.50
2019-04-11T09:22:13.090Z,36.15
2019-04-11T09:24:43.327Z,31.77
2019-04-11T09:27:30.977Z,34.67
2019-04-11T09:30:04.459Z,32.73
2019-04-11T09:32:52.987Z,38.25
2019-04-11T09:35:23.904Z,30.30
2019-04-11T09:37:53.747Z,32.33
2019-04-11T09:40:41.594Z,34.90
2019-04-11T09:43:15.806Z,34.43
2019-04-11T09:45:52.637Z,32.95
2019-04-11T09:48:34.777Z,36.48
2019-04-11T09:51:17.809Z,35.38
2019-04-11T09:53:48.085Z,35.65
2019-04-11T09:56:31.232Z,40.10
2019-04-11T09:59:05.389Z,34.80
2019-04-11T10:04:04.020Z,32.03
2019-04-11T10:06:49.316Z,36.28
2019-04-11T10:12:04.529Z,35.00
2019-04-11T10:14:33.532Z,34.27
2019-04-11T10:17:22.720Z,32.88
2019-04-11T10:19:50.090Z,32.83
2019-04-11T10:22:22.788Z,34.23
2019-04-11T10:25:08.103Z,33.95
2019-04-11T10:27:55.213Z,35.45
2019-04-11T10:30:25.863Z,36.60
2019-04-11T10:33:01.697Z,33.58
2019-04-11T10:35:40.834Z,33.70
2019-04-11T10:38:11.947Z,36.98
2019-04-11T10:41:00.875Z,39.73
2019-04-11T10:43:34.319Z,36.73
2019-04-11T10:46:07.175Z,38.58
2019-04-11T10:48:54.789Z,39.75
2019-04-11T10:51:27.980Z,38.15
2019-04-11T10:53:57.564Z,39.23
2019-04-11T10:56:30.561Z,36.77
2019-04-11T10:58:59.568Z,36.15
2019-04-11T11:01:32.086Z,37.23
2019-04-11T11:04:03.294Z,38.58
2019-04-11T11:06:33.707Z,38.75
2019-04-11T11:09:12.914Z,38.30
2019-04-11T11:11:52.592Z,43.10
2019-04-11T11:14:25.371Z,37.75
2019-04-11T11:17:02.409Z,39.80
2019-04-11T11:19:55.148Z,41.33
2019-04-11T11:22:16.735Z,40.92
2019-04-11T11:24:50.372Z,46.60
2019-04-11T11:27:20.393Z,45.12
2019-04-11T11:29:51.561Z,47.38
2019-04-11T11:32:21.031Z,41.73
2019-04-11T11:34:55.045Z,42.65
2019-04-11T11:37:25.221Z,40.30
2019-04-11T11:40:14.886Z,40.90
2019-04-11T11:43:00.928Z,42.40
2019-04-11T11:45:31.091Z,44.20
2019-04-11T11:48:12.826Z,39.85
2019-04-11T11:50:37.592Z,43.30
2019-04-11T11:53:19.714Z,43.60
2019-04-11T11:55:49.570Z,49.63
2019-04-11T11:58:35.975Z,43.83
2019-04-11T12:01:09.006Z,49.10
2019-04-11T12:03:40.306Z,43.20
2019-04-11T12:06:09.647Z,48.13
2019-04-11T12:08:47.468Z,49.13
2019-04-11T12:11:15.612Z,51.18
2019-04-11T12:14:02.187Z,44.65
2019-04-11T12:16:36.285Z,45.52
2019-04-11T12:19:22.329Z,45.80
2019-04-11T12:21:53.643Z,46.63
2019-04-11T12:24:26.278Z,44.70
2019-04-11T12:27:13.224Z,43.58
2019-04-11T12:30:00.531Z,45.85
2019-04-11T12:32:32.594Z,43.08
2019-04-11T12:35:06.127Z,50.50
2019-04-11T12:37:41.883Z,48.15
2019-04-11T12:40:28.484Z,48.85
2019-04-11T12:42:58.777Z,46.55
2019-04-11T12:45:34.615Z,44.58
2019-04-11T12:48:04.176Z,42.25
2019-04-11T12:50:50.681Z,43.63
2019-04-11T12:53:19.098Z,48.90
2019-04-11T12:55:58.540Z,45.92
2019-04-11T12:58:28.672Z,44.88
2019-04-11T13:00:58.663Z,45.05
2019-04-11T13:03:37.646Z,51.28
2019-04-11T13:06:07.704Z,55.33
2019-04-11T13:08:53.978Z,46.73
2019-04-11T13:11:24.148Z,51.95
2019-04-11T13:13:54.233Z,52.38
2019-04-11T13:16:24.463Z,51.37
2019-04-11T13:19:10.834Z,56.90
2019-04-11T13:21:41.144Z,57.10
2019-04-11T13:24:27.300Z,53.85
2019-04-11T13:27:15.842Z,57.35
2019-04-11T13:29:45.973Z,54.88
2019-04-11T13:32:37.899Z,53.60
2019-04-11T13:35:08.941Z,55.63
2019-04-11T13:37:55.213Z,51.00
2019-04-11T13:40:31.048Z,51.05
2019-04-11T13:43:17.582Z,52.55
2019-04-11T13:45:47.655Z,55.15
2019-04-11T13:48:34.207Z,59.30
2019-04-11T13:51:07.647Z,57.58
2019-04-11T13:53:37.696Z,56.05
2019-04-11T13:56:06.290Z,57.05
2019-04-11T13:58:52.753Z,54.20
2019-04-11T14:01:21.172Z,57.27
2019-04-11T14:03:59.989Z,55.28
2019-04-11T14:06:28.354Z,58.17
2019-04-11T14:08:59.275Z,56.98
2019-04-11T14:11:29.351Z,54.53
2019-04-11T14:13:59.337Z,56.55
2019-04-11T14:16:29.965Z,51.83
2019-04-11T14:19:12.594Z,53.63
2019-04-11T14:21:43.715Z,56.23
2019-04-11T14:24:32.597Z,54.40
2019-04-11T14:27:17.835Z,54.93
2019-04-11T14:29:53.622Z,51.42
2019-04-11T14:32:24.117Z,52.65
2019-04-11T14:35:06.461Z,54.30
2019-04-11T14:37:38.353Z,51.70
2019-04-11T14:40:18.425Z,59.63
2019-04-11T14:43:00.380Z,53.98
2019-04-11T14:45:36.590Z,53.33
2019-04-11T14:48:19.060Z,55.75
2019-04-11T14:50:49.039Z,54.33
2019-04-11T14:53:25.089Z,49.38
2019-04-11T14:55:55.063Z,53.25
2019-04-11T14:58:27.876Z,55.17
2019-04-11T15:00:56.240Z,52.73
2019-04-11T15:03:29.093Z,53.40
2019-04-11T15:05:59.080Z,56.48
2019-04-11T15:08:29.056Z,57.55
2019-04-11T15:11:11.347Z,55.03
2019-04-11T15:13:41.601Z,54.65
2019-04-11T15:16:11.590Z,52.50
2019-04-11T15:18:41.814Z,52.40
2019-04-11T15:21:30.209Z,54.10
2019-04-11T15:23:58.570Z,55.50
2019-04-11T15:26:28.545Z,57.10
2019-04-11T15:28:58.552Z,60.63
2019-04-11T15:31:39.415Z,54.55
2019-04-11T15:34:14.845Z,55.80
2019-04-11T15:36:44.843Z,55.30
2019-04-11T15:39:30.909Z,52.65
2019-04-11T15:42:02.372Z,56.85
2019-04-11T15:44:36.928Z,58.40
2019-04-11T15:47:18.703Z,53.87
2019-04-11T15:50:03.277Z,54.35
2019-04-11T15:52:31.795Z,56.20
2019-04-11T15:55:18.018Z,55.50
2019-04-11T15:57:46.673Z,57.43
2019-04-11T16:00:16.848Z,55.25
2019-04-11T16:02:56.374Z,59.42
2019-04-11T16:05:43.153Z,57.40
2019-04-11T16:08:13.360Z,53.70
2019-04-11T16:10:49.540Z,56.30
2019-04-11T16:13:19.884Z,54.38
2019-04-11T16:16:06.584Z,59.40
2019-04-11T16:18:36.297Z,57.45
2019-04-11T16:21:17.988Z,57.15
2019-04-11T16:23:56.948Z,52.33
2019-04-11T16:26:26.723Z,60.67
2019-04-11T16:28:59.471Z,57.53
2019-04-11T16:31:29.711Z,57.33
2019-04-11T16:33:59.713Z,63.52
2019-04-11T16:36:29.699Z,53.83
2019-04-11T16:39:11.935Z,60.55
2019-04-11T16:41:57.036Z,59.33
2019-04-11T16:44:27.300Z,58.60
2019-04-11T16:47:09.348Z,58.73
2019-04-11T16:49:38.011Z,55.78
2019-04-11T16:52:08.297Z,57.62
2019-04-11T16:54:39.746Z,60.63
2019-04-11T16:57:08.907Z,58.17
2019-04-11T16:59:37.391Z,62.62
2019-04-11T17:02:05.880Z,54.40
2019-04-11T17:04:34.601Z,57.08
2019-04-11T17:07:23.841Z,60.28
2019-04-11T17:09:56.483Z,61.95
2019-04-11T17:12:26.658Z,62.33
2019-04-11T17:14:54.913Z,61.33
2019-04-11T17:17:26.120Z,59.93
2019-04-11T17:19:53.507Z,63.28
2019-04-11T17:22:21.840Z,57.50
2019-04-11T17:24:50.181Z,60.35
2019-04-11T17:27:20.890Z,63.85
2019-04-11T17:29:48.862Z,57.95
2019-04-11T17:32:17.213Z,55.10
2019-04-11T17:34:45.756Z,56.35
2019-04-11T17:37:14.396Z,54.85
2019-04-11T17:39:42.909Z,55.17
2019-04-11T17:42:13.375Z,48.38
2019-04-11T17:44:41.453Z,54.48
2019-04-11T17:47:10.040Z,51.20
2019-04-11T17:49:38.395Z,50.15
2019-04-11T17:52:06.721Z,48.52
2019-04-11T17:54:35.368Z,56.80
2019-04-11T17:57:03.923Z,50.83
2019-04-11T17:59:32.748Z,51.98
2019-04-11T18:02:01.125Z,48.65
2019-04-11T18:04:29.501Z,47.88
2019-04-11T18:06:58.079Z,53.30
2019-04-11T18:09:26.495Z,53.15
2019-04-11T18:11:56.247Z,54.58
2019-04-11T18:14:24.940Z,49.60
2019-04-11T18:16:53.323Z,52.05
2019-04-11T18:19:21.727Z,51.40
2019-04-11T18:21:50.054Z,53.70
2019-04-11T18:24:20.000Z,47.08
2019-04-11T18:26:51.787Z,49.88
2019-04-11T18:29:22.773Z,50.38
2019-04-11T18:31:49.285Z,48.85
2019-04-11T18:34:17.769Z,46.00
2019-04-11T18:36:46.271Z,49.15
2019-04-11T18:39:14.954Z,45.00
2019-04-11T18:41:43.602Z,47.30
2019-04-11T18:44:12.415Z,44.77
2019-04-11T18:46:40.956Z,45.03
2019-04-11T18:49:09.717Z,45.33
2019-04-11T18:51:38.579Z,46.90
2019-04-11T18:54:07.832Z,43.75
2019-04-11T18:56:38.043Z,43.23
2019-04-11T18:59:06.955Z,44.15
2019-04-11T19:01:39.210Z,40.50
2019-04-11T19:04:05.891Z,44.13
2019-04-11T19:06:34.745Z,39.03
2019-04-11T19:09:05.458Z,39.95
2019-04-11T19:11:33.904Z,38.13
2019-04-11T19:14:02.753Z,42.15
2019-04-11T19:16:31.255Z,38.20
2019-04-11T19:19:01.832Z,40.88
2019-04-11T19:21:30.163Z,37.65
2019-04-11T19:23:58.606Z,38.83
2019-04-11T19:26:27.076Z,39.03
2019-04-11T19:28:55.762Z,40.85
2019-04-11T19:31:27.132Z,40.10
2019-04-11T19:33:54.423Z,35.85
2019-04-11T19:36:22.883Z,41.33
2019-04-11T19:38:51.630Z,37.93
2019-04-11T19:41:20.171Z,37.13
2019-04-11T19:43:49.176Z,37.98
2019-04-11T19:46:20.494Z,40.98
2019-04-11T19:48:48.738Z,34.88
2019-04-11T19:51:17.162Z,40.43
2019-04-11T19:53:45.695Z,34.60
2019-04-11T19:56:24.488Z,36.80
2019-04-11T19:58:52.983Z,36.42
2019-04-11T20:01:23.503Z,37.45
2019-04-11T20:03:53.775Z,37.80
2019-04-11T20:06:22.008Z,34.27
2019-04-11T20:08:50.338Z,37.70
2019-04-11T20:11:18.863Z,38.02
2019-04-11T20:13:47.349Z,38.78
2019-04-11T20:16:15.710Z,37.25
2019-04-11T20:18:50.964Z,36.23
2019-04-11T20:21:14.290Z,36.73
2019-04-11T20:23:42.859Z,41.58
2019-04-11T20:26:11.697Z,36.20
2019-04-11T20:28:40.061Z,37.63
2019-04-11T20:31:08.729Z,36.30
2019-04-11T20:33:37.196Z,33.75
2019-04-11T20:36:08.190Z,37.00
2019-04-11T20:38:35.735Z,36.17
2019-04-11T20:41:04.516Z,37.13
2019-04-11T20:43:33.081Z,34.85
2019-04-11T20:46:01.407Z,36.63
2019-04-11T20:48:30.932Z,36.42
2019-04-11T20:51:00.243Z,33.98
2019-04-11T20:53:28.660Z,36.17
2019-04-11T20:55:57.238Z,35.40
2019-04-11T20:58:27.601Z,36.28
2019-04-11T21:00:56.496Z,36.98
2019-04-11T21:03:25.291Z,36.25
2019-04-11T21:05:53.645Z,36.83
2019-04-11T21:08:22.299Z,33.78
2019-04-11T21:10:51.031Z,37.28
2019-04-11T21:13:19.738Z,37.70
2019-04-11T21:15:48.384Z,35.45
2019-04-11T21:18:17.038Z,37.00
2019-04-11T21:20:45.404Z,35.23
2019-04-11T21:23:23.986Z,35.38
2019-04-11T21:25:44.190Z,36.55
2019-04-11T21:28:12.677Z,38.65
2019-04-11T21:30:41.099Z,36.25
2019-04-11T21:33:09.654Z,34.90
2019-04-11T21:35:38.002Z,37.73
2019-04-11T21:38:06.492Z,35.73
2019-04-11T21:40:35.924Z,39.90
2019-04-11T21:43:06.273Z,36.68
2019-04-11T21:45:35.870Z,35.85
2019-04-11T21:48:06.576Z,39.20
2019-04-11T21:50:35.286Z,32.75
2019-04-11T21:53:03.860Z,32.10
2019-04-11T21:55:32.440Z,34.43
2019-04-11T21:58:00.838Z,35.17
2019-04-11T22:00:32.507Z,36.90
2019-04-11T22:03:00.847Z,31.97
2019-04-11T22:05:29.860Z,36.25
2019-04-11T22:08:02.922Z,34.78
2019-04-11T22:10:28.780Z,32.05
2019-04-11T22:12:58.756Z,30.65
2019-04-11T22:15:27.290Z,36.73
2019-04-11T22:17:55.779Z,34.53
2019-04-11T22:20:24.321Z,30.77
2019-04-11T22:22:52.655Z,33.10
2019-04-11T22:25:21.133Z,35.83
2019-04-11T22:27:51.068Z,32.55
2019-04-11T22:30:20.124Z,37.67
2019-04-11T22:32:50.466Z,38.15
2019-04-11T22:35:18.984Z,35.50
2019-04-11T22:37:47.442Z,33.73
2019-04-11T22:40:16.029Z,33.40
2019-04-11T22:42:44.508Z,33.55
2019-04-11T22:45:13.189Z,35.58
2019-04-11T22:47:41.680Z,30.97
2019-04-11T22:50:10.777Z,33.83
2019-04-11T22:52:39.785Z,32.25
2019-04-11T22:55:11.249Z,34.60
2019-04-11T22:57:43.319Z,34.92
2019-04-11T23:00:09.673Z,36.38
2019-04-11T23:02:39.792Z,33.18
2019-04-11T23:05:08.283Z,33.48
2019-04-11T23:07:36.962Z,37.17
2019-04-11T23:10:06.454Z,35.73
2019-04-11T23:12:34.790Z,34.60
2019-04-11T23:15:03.757Z,34.10
2019-04-11T23:17:32.253Z,36.28
2019-04-11T23:20:00.903Z,37.30
2019-04-11T23:22:29.655Z,36.03
2019-04-11T23:24:58.150Z,43.33
2019-04-11T23:27:26.481Z,41.68
2019-04-11T23:29:54.821Z,41.35
2019-04-11T23:32:23.168Z,41.25
2019-04-11T23:34:52.767Z,42.43
2019-04-11T23:37:21.911Z,39.60
2019-04-11T23:39:51.082Z,41.58
2019-04-11T23:42:20.403Z,42.95
2019-04-11T23:44:50.576Z,46.98
2019-04-11T23:47:20.121Z,42.62
2019-04-11T23:49:48.959Z,40.00
2019-04-11T23:52:17.284Z,43.17
2019-04-11T23:54:45.612Z,45.15
2019-04-11T23:57:14.097Z,38.95
2019-04-11T23:59:42.597Z,39.18
